Wetterdaten: Woche 13.08.12 - 19.08.12 (KW33)
Datum Zeit Temp. Innen Temp. Aussen UV X Diff Temp. Feuchte Inne Feuchte Auss Sonnenschein Luftdruck Regen ab 0,1 Wind Sonnenschein T Regendauer Windben
13.08.2012 00:00 24,3 C 17,8 C 0,0 UV-I 0,0 C 49 % 65 % 0 % 1013,5 hPa 0,0 l/m 0,0 km/h (0 Bft) 0,00 h 0,00 h 0,0 km/h (0 Bft)
13.08.2012 01:00 24,2 C 17,5 C 0,0 UV-I 0,0 C 49 % 68 % 0 % 1013,6 hPa 0,0 l/m 0,7 km/h (0 Bft) 0,00 h 0,00 h 2,5 km/h (1 Bft)
13.08.2012 02:00 24,0 C 16,7 C 0,0 UV-I 0,0 C 50 % 70 % 0 % 1013,4 hPa 0,0 l/m 1,0 km/h (0 Bft) 0,00 h 0,00 h 2,9 km/h (1 Bft)
13.08.2012 03:00 23,9 C 16,3 C 0,0 UV-I 0,0 C 50 % 72 % 0 % 1013,2 hPa 0,0 l/m 3,3 km/h (1 Bft) 0,00 h 0,00 h 6,5 km/h (2 Bft)
13.08.2012 04:00 23,8 C 16,2 C 0,0 UV-I 0,0 C 50 % 74 % 0 % 1013,3 hPa 0,0 l/m 2,6 km/h (1 Bft) 0,00 h 0,00 h 5,2 km/h (1 Bft)
13.08.2012 05:00 23,6 C 15,8 C 0,0 UV-I 0,0 C 50 % 75 % 0 % 1013,2 hPa 0,0 l/m 1,4 km/h (1 Bft) 0,00 h 0,00 h 3,4 km/h (1 Bft)
13.08.2012 06:00 23,4 C 15,5 C 0,0 UV-I 0,0 C 51 % 76 % 0 % 1012,9 hPa 0,0 l/m 2,8 km/h (1 Bft) 0,00 h 0,00 h 5,5 km/h (1 Bft)
13.08.2012 07:00 23,4 C 15,7 C 0,1 UV-I 0,0 C 51 % 76 % 0 % 1013,1 hPa 0,0 l/m 3,3 km/h (1 Bft) 0,00 h 0,00 h 7,1 km/h (2 Bft)
13.08.2012 08:00 23,4 C 17,0 C 0,5 UV-I 1,9 C 51 % 73 % 40 % 1013,2 hPa 0,0 l/m 7,3 km/h (2 Bft) 0,33 h 0,00 h 12,8 km/h (3 Bft)
13.08.2012 09:00 23,7 C 19,3 C 1,6 UV-I 6,4 C 50 % 68 % 100 % 1013,4 hPa 0,0 l/m 6,3 km/h (2 Bft) 1,00 h 0,00 h 12,1 km/h (2 Bft)
13.08.2012 10:00 24,0 C 21,4 C 2,3 UV-I 5,0 C 50 % 64 % 99 % 1013,4 hPa 0,0 l/m 4,8 km/h (1 Bft) 1,00 h 0,00 h 8,8 km/h (2 Bft)
13.08.2012 11:00 24,3 C 23,2 C 3,9 UV-I 7,7 C 50 % 61 % 100 % 1013,1 hPa 0,0 l/m 3,0 km/h (1 Bft) 1,00 h 0,00 h 7,4 km/h (2 Bft)
13.08.2012 12:00 24,7 C 24,3 C 2,6 UV-I 5,7 C 50 % 60 % 100 % 1013,0 hPa 0,0 l/m 2,7 km/h (1 Bft) 1,00 h 0,00 h 5,5 km/h (1 Bft)
13.08.2012 13:00 25,2 C 26,2 C 3,2 UV-I 6,8 C 50 % 56 % 100 % 1012,8 hPa 0,0 l/m 2,8 km/h (1 Bft) 1,00 h 0,00 h 6,0 km/h (2 Bft)
13.08.2012 14:00 26,2 C 27,6 C 3,0 UV-I 6,3 C 48 % 50 % 100 % 1013,2 hPa 0,0 l/m 4,0 km/h (1 Bft) 1,00 h 0,00 h 8,6 km/h (2 Bft)
13.08.2012 15:00 26,9 C 27,8 C 2,4 UV-I 4,1 C 47 % 49 % 99 % 1012,2 hPa 0,0 l/m 1,8 km/h (1 Bft) 1,00 h 0,00 h 4,3 km/h (1 Bft)
13.08.2012 16:00 27,1 C 28,0 C 1,8 UV-I 3,1 C 46 % 48 % 87 % 1011,8 hPa 0,0 l/m 2,8 km/h (1 Bft) 0,53 h 0,00 h 6,7 km/h (2 Bft)
13.08.2012 17:00 26,8 C 27,6 C 0,5 UV-I 1,2 C 47 % 48 % 33 % 1011,6 hPa 0,0 l/m 1,3 km/h (1 Bft) 0,00 h 0,00 h 2,9 km/h (1 Bft)
13.08.2012 18:00 26,3 C 25,6 C 0,0 UV-I 0,0 C 48 % 58 % 0 % 1011,9 hPa 0,0 l/m 1,2 km/h (1 Bft) 0,00 h 0,20 h 3,4 km/h (1 Bft)
13.08.2012 19:00 25,9 C 23,1 C 0,0 UV-I 0,0 C 50 % 72 % 0 % 1012,2 hPa 0,0 l/m 0,1 km/h (0 Bft) 0,00 h 0,10 h 0,0 km/h (0 Bft)
13.08.2012 20:00 25,6 C 22,2 C 0,0 UV-I 0,0 C 52 % 77 % 0 % 1012,1 hPa 0,0 l/m 0,2 km/h (0 Bft) 0,00 h 0,30 h 1,4 km/h (1 Bft)
13.08.2012 21:00 25,4 C 22,0 C 0,0 UV-I 0,0 C 53 % 77 % 0 % 1012,2 hPa 0,0 l/m 3,0 km/h (1 Bft) 0,00 h 0,00 h 4,4 km/h (1 Bft)
13.08.2012 22:00 25,2 C 21,3 C 0,0 UV-I 0,0 C 53 % 79 % 0 % 1012,0 hPa 0,0 l/m 0,0 km/h (0 Bft) 0,00 h 0,00 h 0,2 km/h (0 Bft)
13.08.2012 23:00 25,2 C 20,6 C 0,0 UV-I 0,0 C 55 % 82 % 0 % 1012,4 hPa 0,0 l/m 0,1 km/h (0 Bft) 0,00 h 0,00 h 0,2 km/h (0 Bft)
14.08.2012 00:00 25,0 C 20,0 C 0,0 UV-I 0,0 C 55 % 84 % 0 % 1012,5 hPa 0,0 l/m 0,0 km/h (0 Bft) 0,00 h 0,00 h 0,0 km/h (0 Bft)
14.08.2012 01:00 25,0 C 19,6 C 0,0 UV-I 0,0 C 56 % 86 % 0 % 1012,3 hPa 0,0 l/m 0,0 km/h (0 Bft) 0,00 h 0,00 h 0,0 km/h (0 Bft)
14.08.2012 02:00 24,9 C 19,2 C 0,0 UV-I 0,0 C 56 % 87 % 0 % 1012,2 hPa 0,0 l/m 0,0 km/h (0 Bft) 0,00 h 0,00 h 0,0 km/h (0 Bft)
14.08.2012 03:00 24,8 C 18,5 C 0,0 UV-I 0,0 C 57 % 88 % 0 % 1012,1 hPa 0,0 l/m 0,0 km/h (0 Bft) 0,00 h 0,00 h 0,0 km/h (0 Bft)
14.08.2012 04:00 24,8 C 18,3 C 0,0 UV-I 0,0 C 57 % 90 % 0 % 1012,1 hPa 0,0 l/m 0,0 km/h (0 Bft) 0,00 h 0,07 h 0,9 km/h (0 Bft)
14.08.2012 05:00 24,6 C 17,9 C 0,0 UV-I 0,0 C 58 % 90 % 0 % 1011,8 hPa 0,0 l/m 0,7 km/h (0 Bft) 0,00 h 0,00 h 2,4 km/h (1 Bft)
14.08.2012 06:00 24,5 C 17,3 C 0,0 UV-I 0,0 C 58 % 90 % 0 % 1012,0 hPa 0,0 l/m 0,3 km/h (0 Bft) 0,00 h 0,00 h 1,6 km/h (1 Bft)
14.08.2012 07:00 24,4 C 17,1 C 0,0 UV-I 0,0 C 58 % 90 % 1 % 1012,2 hPa 0,0 l/m 1,4 km/h (1 Bft) 0,00 h 0,00 h 3,7 km/h (1 Bft)
14.08.2012 08:00 24,4 C 18,3 C 0,5 UV-I 2,2 C 58 % 87 % 46 % 1012,3 hPa 0,0 l/m 2,3 km/h (1 Bft) 0,37 h 0,00 h 4,9 km/h (1 Bft)
14.08.2012 09:00 24,6 C 20,9 C 1,5 UV-I 6,9 C 57 % 81 % 100 % 1012,5 hPa 0,0 l/m 2,8 km/h (1 Bft) 1,00 h 0,00 h 6,2 km/h (2 Bft)
14.08.2012 10:00 24,8 C 23,3 C 3,3 UV-I 7,6 C 57 % 75 % 100 % 1012,6 hPa 0,0 l/m 2,3 km/h (1 Bft) 1,00 h 0,00 h 5,2 km/h (1 Bft)
14.08.2012 11:00 25,0 C 25,2 C 3,9 UV-I 7,9 C 57 % 69 % 100 % 1012,6 hPa 0,0 l/m 2,0 km/h (1 Bft) 1,00 h 0,00 h 4,3 km/h (1 Bft)
14.08.2012 12:00 25,4 C 26,7 C 3,3 UV-I 7,2 C 56 % 63 % 100 % 1012,5 hPa 0,0 l/m 2,1 km/h (1 Bft) 1,00 h 0,00 h 4,9 km/h (1 Bft)
14.08.2012 13:00 25,8 C 27,8 C 2,6 UV-I 6,0 C 56 % 59 % 100 % 1012,4 hPa 0,0 l/m 2,1 km/h (1 Bft) 1,00 h 0,00 h 4,9 km/h (1 Bft)
14.08.2012 14:00 26,3 C 27,6 C 2,0 UV-I 4,5 C 54 % 56 % 99 % 1012,4 hPa 0,0 l/m 3,4 km/h (1 Bft) 1,00 h 0,00 h 8,0 km/h (2 Bft)
14.08.2012 15:00 26,8 C 27,4 C 1,5 UV-I 3,4 C 53 % 56 % 87 % 1012,0 hPa 0,0 l/m 4,5 km/h (1 Bft) 0,67 h 0,00 h 8,0 km/h (2 Bft)
14.08.2012 16:00 26,6 C 25,4 C 0,3 UV-I 0,7 C 53 % 64 % 20 % 1011,9 hPa 1,2 l/m 5,7 km/h (1 Bft) 0,00 h 0,37 h 9,5 km/h (2 Bft)
14.08.2012 17:00 26,2 C 22,4 C 0,2 UV-I 0,0 C 55 % 81 % 0 % 1012,4 hPa 0,1 l/m 2,8 km/h (1 Bft) 0,00 h 0,17 h 6,4 km/h (2 Bft)
14.08.2012 18:00 25,7 C 20,1 C 0,0 UV-I 0,0 C 58 % 85 % 0 % 1013,1 hPa 3,7 l/m 2,3 km/h (1 Bft) 0,00 h 0,73 h 5,1 km/h (1 Bft)
14.08.2012 19:00 25,3 C 19,3 C 0,0 UV-I 0,0 C 59 % 91 % 0 % 1013,1 hPa 0,0 l/m 0,5 km/h (0 Bft) 0,00 h 0,00 h 2,3 km/h (1 Bft)
14.08.2012 20:00 25,2 C 19,2 C 0,0 UV-I 0,0 C 60 % 94 % 0 % 1013,2 hPa 0,0 l/m 5,4 km/h (1 Bft) 0,00 h 0,07 h 8,3 km/h (2 Bft)
14.08.2012 21:00 25,0 C 18,9 C 0,0 UV-I 0,0 C 61 % 92 % 0 % 1013,9 hPa 0,4 l/m 2,0 km/h (1 Bft) 0,00 h 0,23 h 3,7 km/h (1 Bft)
14.08.2012 22:00 24,8 C 18,5 C 0,0 UV-I 0,0 C 62 % 92 % 0 % 1013,8 hPa 0,0 l/m 0,1 km/h (0 Bft) 0,00 h 0,00 h 0,3 km/h (0 Bft)
14.08.2012 23:00 24,6 C 18,1 C 0,0 UV-I 0,0 C 63 % 93 % 0 % 1013,5 hPa 0,0 l/m 0,2 km/h (0 Bft) 0,00 h 0,00 h 0,2 km/h (0 Bft)
15.08.2012 00:00 24,5 C 17,9 C 0,0 UV-I 0,0 C 64 % 94 % 0 % 1013,2 hPa 0,0 l/m 0,0 km/h (0 Bft) 0,00 h 0,00 h 0,0 km/h (0 Bft)
15.08.2012 01:00 24,4 C 17,8 C 0,0 UV-I 0,0 C 64 % 94 % 0 % 1012,9 hPa 0,0 l/m 0,0 km/h (0 Bft) 0,00 h 0,00 h 0,0 km/h (0 Bft)
15.08.2012 02:00 24,3 C 17,6 C 0,0 UV-I 0,0 C 64 % 95 % 0 % 1012,6 hPa 0,0 l/m 0,0 km/h (0 Bft) 0,00 h 0,00 h 0,0 km/h (0 Bft)
15.08.2012 03:00 24,2 C 17,7 C 0,0 UV-I 0,0 C 65 % 95 % 0 % 1012,0 hPa 0,0 l/m 0,0 km/h (0 Bft) 0,00 h 0,00 h 0,0 km/h (0 Bft)
15.08.2012 04:00 24,2 C 17,8 C 0,0 UV-I 0,0 C 65 % 96 % 0 % 1011,7 hPa 0,0 l/m 0,0 km/h (0 Bft) 0,00 h 0,00 h 0,0 km/h (0 Bft)
15.08.2012 05:00 24,1 C 17,8 C 0,0 UV-I 0,0 C 65 % 96 % 0 % 1011,2 hPa 0,0 l/m 0,0 km/h (0 Bft) 0,00 h 0,00 h 0,0 km/h (0 Bft)
15.08.2012 06:00 24,0 C 17,9 C 0,0 UV-I 0,0 C 66 % 96 % 0 % 1011,1 hPa 0,0 l/m 0,0 km/h (0 Bft) 0,00 h 0,00 h 0,0 km/h (0 Bft)
15.08.2012 07:00 24,0 C 18,0 C 0,0 UV-I 0,1 C 66 % 97 % 2 % 1010,9 hPa 0,0 l/m 0,0 km/h (0 Bft) 0,00 h 0,00 h 0,0 km/h (0 Bft)
15.08.2012 08:00 24,2 C 18,9 C 0,0 UV-I 1,5 C 66 % 97 % 42 % 1010,8 hPa 0,0 l/m 0,0 km/h (0 Bft) 0,00 h 0,00 h 0,0 km/h (0 Bft)
15.08.2012 09:00 24,6 C 20,5 C 0,0 UV-I 2,8 C 65 % 94 % 78 % 1010,7 hPa 0,0 l/m 0,5 km/h (0 Bft) 0,37 h 0,00 h 1,4 km/h (1 Bft)
15.08.2012 10:00 24,8 C 22,7 C 3,2 UV-I 6,0 C 64 % 84 % 98 % 1010,3 hPa 0,0 l/m 4,5 km/h (1 Bft) 0,93 h 0,00 h 8,2 km/h (2 Bft)
15.08.2012 11:00 25,0 C 25,3 C 4,6 UV-I 6,0 C 63 % 67 % 100 % 1009,7 hPa 0,0 l/m 8,3 km/h (2 Bft) 1,00 h 0,00 h 14,1 km/h (3 Bft)
15.08.2012 12:00 25,2 C 27,1 C 3,7 UV-I 5,2 C 61 % 58 % 100 % 1009,1 hPa 0,0 l/m 9,2 km/h (2 Bft) 1,00 h 0,00 h 14,4 km/h (3 Bft)
15.08.2012 13:00 25,7 C 29,3 C 3,0 UV-I 5,1 C 60 % 53 % 100 % 1008,1 hPa 0,0 l/m 7,8 km/h (2 Bft) 1,00 h 0,00 h 12,5 km/h (3 Bft)
15.08.2012 14:00 26,9 C 30,7 C 2,9 UV-I 4,1 C 57 % 48 % 100 % 1008,5 hPa 0,0 l/m 10,7 km/h (2 Bft) 1,00 h 0,00 h 17,3 km/h (3 Bft)
15.08.2012 15:00 28,6 C 31,8 C 4,0 UV-I 4,2 C 52 % 44 % 100 % 1007,1 hPa 0,0 l/m 9,8 km/h (2 Bft) 1,00 h 0,00 h 15,4 km/h (3 Bft)
15.08.2012 16:00 29,7 C 32,1 C 3,6 UV-I 3,3 C 48 % 44 % 93 % 1006,6 hPa 0,0 l/m 10,2 km/h (2 Bft) 0,90 h 0,00 h 16,5 km/h (3 Bft)
15.08.2012 17:00 29,0 C 30,9 C 1,1 UV-I 1,2 C 49 % 47 % 33 % 1006,5 hPa 0,0 l/m 7,1 km/h (2 Bft) 0,00 h 0,00 h 11,2 km/h (2 Bft)
15.08.2012 18:00 28,2 C 30,1 C 0,6 UV-I 0,4 C 51 % 50 % 10 % 1006,5 hPa 0,0 l/m 4,6 km/h (1 Bft) 0,00 h 0,00 h 7,9 km/h (2 Bft)
15.08.2012 19:00 27,7 C 29,1 C 0,0 UV-I 0,0 C 52 % 52 % 0 % 1006,8 hPa 0,0 l/m 5,3 km/h (1 Bft) 0,00 h 0,00 h 9,7 km/h (2 Bft)
15.08.2012 20:00 27,3 C 27,8 C 0,0 UV-I 0,0 C 53 % 56 % 0 % 1007,4 hPa 0,0 l/m 2,1 km/h (1 Bft) 0,00 h 0,00 h 5,2 km/h (1 Bft)
15.08.2012 21:00 27,0 C 26,4 C 0,0 UV-I 0,0 C 54 % 61 % 0 % 1008,0 hPa 0,0 l/m 1,0 km/h (0 Bft) 0,00 h 0,00 h 2,3 km/h (1 Bft)
15.08.2012 22:00 26,8 C 26,1 C 0,0 UV-I 0,0 C 55 % 63 % 0 % 1008,7 hPa 0,0 l/m 2,3 km/h (1 Bft) 0,00 h 0,23 h 6,2 km/h (2 Bft)
15.08.2012 23:00 26,6 C 23,6 C 0,0 UV-I 0,0 C 57 % 71 % 0 % 1010,3 hPa 0,0 l/m 5,0 km/h (1 Bft) 0,00 h 0,27 h 10,8 km/h (2 Bft)
16.08.2012 00:00 26,2 C 21,0 C 0,0 UV-I 0,0 C 56 % 74 % 0 % 1012,0 hPa 0,0 l/m 3,7 km/h (1 Bft) 0,00 h 0,03 h 9,4 km/h (2 Bft)
16.08.2012 01:00 25,9 C 19,7 C 0,0 UV-I 0,0 C 56 % 78 % 0 % 1012,8 hPa 0,0 l/m 4,0 km/h (1 Bft) 0,00 h 0,30 h 8,5 km/h (2 Bft)
16.08.2012 02:00 25,7 C 18,7 C 0,0 UV-I 0,0 C 56 % 80 % 0 % 1013,6 hPa 0,0 l/m 0,7 km/h (0 Bft) 0,00 h 0,00 h 1,5 km/h (1 Bft)
16.08.2012 03:00 25,5 C 18,1 C 0,0 UV-I 0,0 C 56 % 82 % 0 % 1014,0 hPa 0,0 l/m 0,1 km/h (0 Bft) 0,00 h 0,00 h 0,0 km/h (0 Bft)
16.08.2012 04:00 25,3 C 18,0 C 0,0 UV-I 0,0 C 55 % 83 % 0 % 1014,6 hPa 0,0 l/m 0,1 km/h (0 Bft) 0,00 h 0,00 h 0,0 km/h (0 Bft)
16.08.2012 05:00 25,1 C 17,8 C 0,0 UV-I 0,0 C 56 % 83 % 0 % 1014,8 hPa 0,0 l/m 0,0 km/h (0 Bft) 0,00 h 0,00 h 0,0 km/h (0 Bft)
16.08.2012 06:00 24,9 C 17,1 C 0,0 UV-I 0,0 C 55 % 84 % 0 % 1015,4 hPa 0,0 l/m 0,0 km/h (0 Bft) 0,00 h 0,00 h 0,0 km/h (0 Bft)
16.08.2012 07:00 24,8 C 16,8 C 0,0 UV-I 0,0 C 56 % 86 % 1 % 1016,0 hPa 0,0 l/m 0,0 km/h (0 Bft) 0,00 h 0,00 h 0,0 km/h (0 Bft)
16.08.2012 08:00 24,8 C 17,8 C 0,2 UV-I 0,8 C 57 % 87 % 23 % 1016,4 hPa 0,0 l/m 0,3 km/h (0 Bft) 0,00 h 0,00 h 1,4 km/h (1 Bft)
16.08.2012 09:00 24,7 C 19,4 C 1,6 UV-I 6,5 C 55 % 79 % 93 % 1017,1 hPa 0,0 l/m 2,8 km/h (1 Bft) 0,87 h 0,00 h 4,8 km/h (1 Bft)
16.08.2012 10:00 24,8 C 21,5 C 4,3 UV-I 8,8 C 54 % 67 % 100 % 1017,6 hPa 0,0 l/m 3,4 km/h (1 Bft) 1,00 h 0,00 h 6,2 km/h (2 Bft)
16.08.2012 11:00 24,9 C 23,0 C 5,1 UV-I 8,5 C 52 % 61 % 100 % 1017,9 hPa 0,0 l/m 3,1 km/h (1 Bft) 1,00 h 0,00 h 5,1 km/h (1 Bft)
16.08.2012 12:00 25,1 C 24,1 C 4,0 UV-I 7,1 C 51 % 55 % 100 % 1017,9 hPa 0,0 l/m 4,6 km/h (1 Bft) 1,00 h 0,00 h 7,3 km/h (2 Bft)
16.08.2012 13:00 25,6 C 25,0 C 3,1 UV-I 6,6 C 49 % 51 % 100 % 1018,0 hPa 0,0 l/m 4,7 km/h (1 Bft) 1,00 h 0,00 h 7,4 km/h (2 Bft)
16.08.2012 14:00 27,0 C 26,0 C 3,1 UV-I 6,1 C 46 % 48 % 100 % 1019,1 hPa 0,0 l/m 5,1 km/h (1 Bft) 1,00 h 0,00 h 7,7 km/h (2 Bft)
16.08.2012 15:00 28,5 C 26,5 C 3,7 UV-I 5,8 C 43 % 47 % 100 % 1018,2 hPa 0,0 l/m 4,8 km/h (1 Bft) 1,00 h 0,00 h 7,0 km/h (2 Bft)
16.08.2012 16:00 29,3 C 26,7 C 4,2 UV-I 5,6 C 41 % 46 % 100 % 1017,6 hPa 0,0 l/m 4,3 km/h (1 Bft) 1,00 h 0,00 h 6,1 km/h (2 Bft)
16.08.2012 17:00 28,9 C 26,6 C 3,2 UV-I 5,0 C 42 % 46 % 100 % 1017,3 hPa 0,0 l/m 3,1 km/h (1 Bft) 1,00 h 0,00 h 5,8 km/h (2 Bft)
16.08.2012 18:00 27,8 C 25,5 C 0,8 UV-I 1,7 C 44 % 48 % 46 % 1017,7 hPa 0,0 l/m 3,2 km/h (1 Bft) 0,30 h 0,00 h 4,4 km/h (1 Bft)
16.08.2012 19:00 27,2 C 24,4 C 0,3 UV-I 0,0 C 45 % 51 % 0 % 1018,0 hPa 0,0 l/m 2,7 km/h (1 Bft) 0,00 h 0,00 h 3,9 km/h (1 Bft)
16.08.2012 20:00 26,7 C 22,7 C 0,0 UV-I 0,0 C 47 % 58 % 0 % 1018,3 hPa 0,0 l/m 0,1 km/h (0 Bft) 0,00 h 0,00 h 0,0 km/h (0 Bft)
16.08.2012 21:00 26,2 C 20,6 C 0,0 UV-I 0,0 C 49 % 66 % 0 % 1018,9 hPa 0,0 l/m 0,0 km/h (0 Bft) 0,00 h 0,00 h 0,0 km/h (0 Bft)
16.08.2012 22:00 25,8 C 19,2 C 0,0 UV-I 0,0 C 51 % 73 % 0 % 1019,0 hPa 0,0 l/m 0,0 km/h (0 Bft) 0,00 h 0,00 h 0,0 km/h (0 Bft)
16.08.2012 23:00 25,6 C 18,4 C 0,0 UV-I 0,0 C 52 % 79 % 0 % 1019,2 hPa 0,0 l/m 0,0 km/h (0 Bft) 0,00 h 0,00 h 0,0 km/h (0 Bft)
17.08.2012 00:00 25,4 C 18,1 C 0,0 UV-I 0,0 C 53 % 81 % 0 % 1019,1 hPa 0,0 l/m 0,0 km/h (0 Bft) 0,00 h 0,00 h 0,0 km/h (0 Bft)
17.08.2012 01:00 25,2 C 17,7 C 0,0 UV-I 0,0 C 54 % 83 % 0 % 1019,1 hPa 0,0 l/m 0,0 km/h (0 Bft) 0,00 h 0,00 h 0,0 km/h (0 Bft)
17.08.2012 02:00 25,1 C 17,3 C 0,0 UV-I 0,0 C 55 % 85 % 0 % 1019,2 hPa 0,0 l/m 0,0 km/h (0 Bft) 0,00 h 0,00 h 0,0 km/h (0 Bft)
17.08.2012 03:00 25,0 C 17,4 C 0,0 UV-I 0,0 C 56 % 87 % 0 % 1019,1 hPa 0,0 l/m 0,0 km/h (0 Bft) 0,00 h 0,00 h 0,0 km/h (0 Bft)
17.08.2012 04:00 24,9 C 17,1 C 0,0 UV-I 0,0 C 56 % 87 % 0 % 1019,0 hPa 0,0 l/m 0,0 km/h (0 Bft) 0,00 h 0,00 h 0,0 km/h (0 Bft)
17.08.2012 05:00 24,8 C 17,4 C 0,0 UV-I 0,0 C 56 % 86 % 0 % 1018,7 hPa 0,0 l/m 0,0 km/h (0 Bft) 0,00 h 0,00 h 0,0 km/h (0 Bft)
17.08.2012 06:00 24,7 C 17,0 C 0,0 UV-I 0,0 C 55 % 84 % 0 % 1018,6 hPa 0,0 l/m 0,5 km/h (0 Bft) 0,00 h 0,00 h 1,7 km/h (1 Bft)
17.08.2012 07:00 24,5 C 16,9 C 0,0 UV-I 0,1 C 55 % 86 % 3 % 1018,9 hPa 0,0 l/m 1,4 km/h (1 Bft) 0,00 h 0,00 h 2,2 km/h (1 Bft)
17.08.2012 08:00 24,6 C 18,2 C 0,4 UV-I 1,8 C 56 % 85 % 51 % 1019,1 hPa 0,0 l/m 1,5 km/h (1 Bft) 0,27 h 0,00 h 2,7 km/h (1 Bft)
17.08.2012 09:00 24,9 C 19,9 C 1,1 UV-I 3,5 C 56 % 81 % 88 % 1019,1 hPa 0,0 l/m 2,6 km/h (1 Bft) 0,73 h 0,00 h 4,9 km/h (1 Bft)
17.08.2012 10:00 25,1 C 22,2 C 3,4 UV-I 6,1 C 56 % 73 % 100 % 1019,2 hPa 0,0 l/m 3,8 km/h (1 Bft) 1,00 h 0,00 h 6,7 km/h (2 Bft)
17.08.2012 11:00 25,2 C 24,7 C 4,8 UV-I 7,1 C 55 % 64 % 100 % 1019,1 hPa 0,0 l/m 3,7 km/h (1 Bft) 1,00 h 0,00 h 5,5 km/h (1 Bft)
17.08.2012 12:00 25,6 C 26,7 C 4,1 UV-I 6,9 C 54 % 52 % 100 % 1018,8 hPa 0,0 l/m 4,1 km/h (1 Bft) 1,00 h 0,00 h 6,4 km/h (2 Bft)
17.08.2012 13:00 26,1 C 28,1 C 3,3 UV-I 6,2 C 52 % 47 % 100 % 1018,4 hPa 0,0 l/m 5,0 km/h (1 Bft) 1,00 h 0,00 h 7,8 km/h (2 Bft)
17.08.2012 14:00 27,3 C 29,5 C 3,8 UV-I 6,0 C 49 % 43 % 100 % 1019,2 hPa 0,0 l/m 7,8 km/h (2 Bft) 1,00 h 0,00 h 11,6 km/h (2 Bft)
17.08.2012 15:00 28,6 C 29,8 C 3,6 UV-I 4,5 C 45 % 42 % 100 % 1018,1 hPa 0,0 l/m 5,9 km/h (2 Bft) 1,00 h 0,00 h 9,8 km/h (2 Bft)
17.08.2012 16:00 29,6 C 30,6 C 4,7 UV-I 4,7 C 42 % 40 % 100 % 1017,3 hPa 0,0 l/m 5,8 km/h (2 Bft) 1,00 h 0,00 h 7,9 km/h (2 Bft)
17.08.2012 17:00 28,8 C 30,6 C 3,4 UV-I 4,2 C 43 % 40 % 100 % 1017,6 hPa 0,0 l/m 4,8 km/h (1 Bft) 1,00 h 0,00 h 6,9 km/h (2 Bft)
17.08.2012 18:00 28,0 C 29,5 C 0,9 UV-I 1,1 C 45 % 42 % 32 % 1017,5 hPa 0,0 l/m 4,2 km/h (1 Bft) 0,03 h 0,00 h 6,4 km/h (2 Bft)
17.08.2012 19:00 27,6 C 28,5 C 0,3 UV-I 0,0 C 46 % 46 % 0 % 1017,3 hPa 0,0 l/m 2,1 km/h (1 Bft) 0,00 h 0,00 h 2,6 km/h (1 Bft)
17.08.2012 20:00 27,2 C 26,9 C 0,0 UV-I 0,0 C 48 % 51 % 0 % 1017,4 hPa 0,0 l/m 0,3 km/h (0 Bft) 0,00 h 0,00 h 0,1 km/h (0 Bft)
17.08.2012 21:00 26,9 C 24,5 C 0,0 UV-I 0,0 C 50 % 58 % 0 % 1018,0 hPa 0,0 l/m 0,0 km/h (0 Bft) 0,00 h 0,00 h 0,0 km/h (0 Bft)
17.08.2012 22:00 26,6 C 22,6 C 0,0 UV-I 0,0 C 51 % 63 % 0 % 1018,1 hPa 0,0 l/m 0,0 km/h (0 Bft) 0,00 h 0,00 h 0,0 km/h (0 Bft)
17.08.2012 23:00 26,3 C 21,5 C 0,0 UV-I 0,0 C 52 % 67 % 0 % 1018,3 hPa 0,0 l/m 0,1 km/h (0 Bft) 0,00 h 0,00 h 0,0 km/h (0 Bft)
18.08.2012 00:00 26,1 C 20,7 C 0,0 UV-I 0,0 C 53 % 71 % 0 % 1018,4 hPa 0,0 l/m 0,7 km/h (0 Bft) 0,00 h 0,00 h 1,8 km/h (1 Bft)
18.08.2012 01:00 25,9 C 20,2 C 0,0 UV-I 0,0 C 53 % 75 % 0 % 1018,5 hPa 0,0 l/m 1,5 km/h (1 Bft) 0,00 h 0,00 h 3,2 km/h (1 Bft)
18.08.2012 02:00 25,8 C 19,8 C 0,0 UV-I 0,0 C 54 % 77 % 0 % 1018,2 hPa 0,0 l/m 0,9 km/h (0 Bft) 0,00 h 0,00 h 1,5 km/h (1 Bft)
18.08.2012 03:00 25,6 C 19,2 C 0,0 UV-I 0,0 C 54 % 79 % 0 % 1018,1 hPa 0,0 l/m 2,5 km/h (1 Bft) 0,00 h 0,00 h 4,5 km/h (1 Bft)
18.08.2012 04:00 25,4 C 18,6 C 0,0 UV-I 0,0 C 54 % 80 % 0 % 1018,1 hPa 0,0 l/m 4,1 km/h (1 Bft) 0,00 h 0,00 h 5,9 km/h (2 Bft)
18.08.2012 05:00 25,2 C 18,4 C 0,0 UV-I 0,0 C 54 % 81 % 0 % 1018,0 hPa 0,0 l/m 4,1 km/h (1 Bft) 0,00 h 0,00 h 5,0 km/h (1 Bft)
18.08.2012 06:00 25,0 C 18,1 C 0,0 UV-I 0,0 C 54 % 82 % 0 % 1018,0 hPa 0,0 l/m 2,4 km/h (1 Bft) 0,00 h 0,00 h 4,2 km/h (1 Bft)
18.08.2012 07:00 25,0 C 18,6 C 0,1 UV-I 0,0 C 55 % 81 % 1 % 1018,0 hPa 0,0 l/m 3,9 km/h (1 Bft) 0,00 h 0,00 h 6,3 km/h (2 Bft)
18.08.2012 08:00 25,4 C 20,4 C 0,5 UV-I 1,9 C 55 % 77 % 40 % 1018,0 hPa 0,0 l/m 6,2 km/h (2 Bft) 0,33 h 0,00 h 8,8 km/h (2 Bft)
18.08.2012 09:00 25,7 C 22,9 C 1,6 UV-I 6,2 C 54 % 70 % 100 % 1017,9 hPa 0,0 l/m 6,9 km/h (2 Bft) 1,00 h 0,00 h 9,4 km/h (2 Bft)
18.08.2012 10:00 25,7 C 25,7 C 4,2 UV-I 6,5 C 55 % 63 % 100 % 1017,5 hPa 0,0 l/m 7,1 km/h (2 Bft) 1,00 h 0,00 h 11,0 km/h (2 Bft)
18.08.2012 11:00 25,9 C 28,0 C 5,3 UV-I 5,2 C 55 % 55 % 100 % 1017,2 hPa 0,0 l/m 10,5 km/h (2 Bft) 1,00 h 0,00 h 15,0 km/h (3 Bft)
18.08.2012 12:00 26,2 C 30,0 C 3,7 UV-I 5,0 C 54 % 51 % 100 % 1016,8 hPa 0,0 l/m 9,0 km/h (2 Bft) 1,00 h 0,00 h 12,1 km/h (2 Bft)
18.08.2012 13:00 26,8 C 31,8 C 3,3 UV-I 4,5 C 54 % 47 % 100 % 1016,5 hPa 0,0 l/m 9,9 km/h (2 Bft) 1,00 h 0,00 h 13,0 km/h (3 Bft)
18.08.2012 14:00 28,1 C 33,6 C 3,3 UV-I 4,5 C 52 % 44 % 100 % 1017,3 hPa 0,0 l/m 8,0 km/h (2 Bft) 0,97 h 0,00 h 10,5 km/h (2 Bft)
18.08.2012 15:00 29,7 C 34,7 C 4,3 UV-I 4,2 C 49 % 42 % 100 % 1015,9 hPa 0,0 l/m 8,9 km/h (2 Bft) 1,00 h 0,00 h 13,7 km/h (3 Bft)
18.08.2012 16:00 31,1 C 35,5 C 4,9 UV-I 4,0 C 46 % 40 % 100 % 1014,7 hPa 0,0 l/m 8,4 km/h (2 Bft) 1,00 h 0,00 h 11,5 km/h (2 Bft)
18.08.2012 17:00 31,6 C 35,8 C 3,7 UV-I 3,6 C 45 % 39 % 97 % 1014,8 hPa 0,0 l/m 7,5 km/h (2 Bft) 0,93 h 0,00 h 10,0 km/h (2 Bft)
18.08.2012 18:00 30,4 C 34,6 C 0,9 UV-I 0,5 C 47 % 40 % 16 % 1015,2 hPa 0,0 l/m 6,6 km/h (2 Bft) 0,00 h 0,00 h 9,5 km/h (2 Bft)
18.08.2012 19:00 29,4 C 33,3 C 0,3 UV-I 0,0 C 49 % 43 % 0 % 1015,1 hPa 0,0 l/m 3,6 km/h (1 Bft) 0,00 h 0,00 h 5,4 km/h (1 Bft)
18.08.2012 20:00 28,8 C 31,2 C 0,0 UV-I 0,0 C 50 % 47 % 0 % 1015,4 hPa 0,0 l/m 2,7 km/h (1 Bft) 0,00 h 0,00 h 3,7 km/h (1 Bft)
18.08.2012 21:00 28,4 C 29,0 C 0,0 UV-I 0,0 C 51 % 53 % 0 % 1016,0 hPa 0,0 l/m 2,3 km/h (1 Bft) 0,00 h 0,00 h 4,3 km/h (1 Bft)
18.08.2012 22:00 28,1 C 27,3 C 0,0 UV-I 0,0 C 52 % 57 % 0 % 1016,3 hPa 0,0 l/m 2,7 km/h (1 Bft) 0,00 h 0,00 h 4,2 km/h (1 Bft)
18.08.2012 23:00 27,9 C 26,4 C 0,0 UV-I 0,0 C 53 % 60 % 0 % 1016,4 hPa 0,0 l/m 3,3 km/h (1 Bft) 0,00 h 0,00 h 4,7 km/h (1 Bft)
19.08.2012 00:00 27,7 C 25,2 C 0,0 UV-I 0,0 C 54 % 64 % 0 % 1016,5 hPa 0,0 l/m 1,0 km/h (0 Bft) 0,00 h 0,00 h 1,6 km/h (1 Bft)
19.08.2012 01:00 27,6 C 24,1 C 0,0 UV-I 0,0 C 54 % 68 % 0 % 1016,7 hPa 0,0 l/m 1,0 km/h (0 Bft) 0,00 h 0,00 h 2,1 km/h (1 Bft)
19.08.2012 02:00 27,4 C 23,2 C 0,0 UV-I 0,0 C 54 % 71 % 0 % 1016,5 hPa 0,0 l/m 1,1 km/h (1 Bft) 0,00 h 0,00 h 2,4 km/h (1 Bft)
19.08.2012 03:00 27,2 C 22,4 C 0,0 UV-I 0,0 C 55 % 74 % 0 % 1016,6 hPa 0,0 l/m 0,8 km/h (0 Bft) 0,00 h 0,00 h 1,7 km/h (1 Bft)
19.08.2012 04:00 27,1 C 22,2 C 0,0 UV-I 0,0 C 55 % 76 % 0 % 1016,3 hPa 0,0 l/m 1,8 km/h (1 Bft) 0,00 h 0,00 h 4,1 km/h (1 Bft)
19.08.2012 05:00 27,0 C 22,3 C 0,0 UV-I 0,0 C 55 % 76 % 0 % 1015,9 hPa 0,0 l/m 5,3 km/h (1 Bft) 0,00 h 0,00 h 8,1 km/h (2 Bft)
19.08.2012 06:00 26,9 C 22,3 C 0,0 UV-I 0,0 C 56 % 75 % 0 % 1015,9 hPa 0,0 l/m 6,3 km/h (2 Bft) 0,00 h 0,00 h 8,3 km/h (2 Bft)
19.08.2012 07:00 26,8 C 22,1 C 0,0 UV-I 0,0 C 56 % 76 % 0 % 1016,1 hPa 0,0 l/m 4,7 km/h (1 Bft) 0,00 h 0,00 h 7,0 km/h (2 Bft)
19.08.2012 08:00 26,9 C 22,9 C 0,5 UV-I 1,8 C 56 % 75 % 36 % 1016,1 hPa 0,0 l/m 4,0 km/h (1 Bft) 0,30 h 0,00 h 6,3 km/h (2 Bft)
19.08.2012 09:00 27,0 C 25,4 C 1,5 UV-I 6,3 C 56 % 69 % 100 % 1015,9 hPa 0,0 l/m 5,7 km/h (1 Bft) 1,00 h 0,00 h 9,7 km/h (2 Bft)
19.08.2012 10:00 27,1 C 28,3 C 3,9 UV-I 7,1 C 56 % 63 % 100 % 1015,8 hPa 0,0 l/m 4,4 km/h (1 Bft) 1,00 h 0,00 h 7,4 km/h (2 Bft)
19.08.2012 11:00 27,3 C 30,7 C 5,2 UV-I 5,7 C 56 % 56 % 100 % 1015,5 hPa 0,0 l/m 8,3 km/h (2 Bft) 1,00 h 0,00 h 11,8 km/h (2 Bft)
19.08.2012 12:00 27,6 C 33,0 C 4,0 UV-I 5,1 C 57 % 51 % 100 % 1015,1 hPa 0,0 l/m 7,9 km/h (2 Bft) 1,00 h 0,00 h 10,5 km/h (2 Bft)
19.08.2012 13:00 28,2 C 35,2 C 3,4 UV-I 5,1 C 56 % 47 % 100 % 1014,6 hPa 0,0 l/m 7,0 km/h (2 Bft) 1,00 h 0,00 h 10,1 km/h (2 Bft)
19.08.2012 14:00 29,3 C 37,0 C 3,3 UV-I 4,8 C 55 % 44 % 100 % 1014,8 hPa 0,0 l/m 5,8 km/h (2 Bft) 1,00 h 0,00 h 8,6 km/h (2 Bft)
19.08.2012 15:00 30,7 C 38,3 C 3,8 UV-I 5,1 C 51 % 37 % 100 % 1013,6 hPa 0,0 l/m 4,4 km/h (1 Bft) 1,00 h 0,00 h 6,5 km/h (2 Bft)
19.08.2012 16:00 31,7 C 38,4 C 3,8 UV-I 4,7 C 47 % 37 % 100 % 1013,1 hPa 0,0 l/m 3,4 km/h (1 Bft) 1,00 h 0,00 h 5,7 km/h (1 Bft)
19.08.2012 17:00 31,3 C 37,5 C 2,1 UV-I 2,8 C 48 % 39 % 72 % 1013,5 hPa 0,0 l/m 2,3 km/h (1 Bft) 0,47 h 0,00 h 3,2 km/h (1 Bft)
19.08.2012 18:00 30,4 C 36,3 C 0,7 UV-I 0,9 C 50 % 44 % 24 % 1013,8 hPa 0,0 l/m 0,3 km/h (0 Bft) 0,00 h 0,00 h 0,4 km/h (0 Bft)
19.08.2012 19:00 29,8 C 34,3 C 0,1 UV-I 0,0 C 52 % 51 % 0 % 1013,3 hPa 0,0 l/m 0,1 km/h (0 Bft) 0,00 h 0,00 h 0,3 km/h (0 Bft)
19.08.2012 20:00 29,5 C 32,1 C 0,0 UV-I 0,0 C 54 % 57 % 0 % 1013,7 hPa 0,0 l/m 0,4 km/h (0 Bft) 0,00 h 0,00 h 0,5 km/h (0 Bft)
19.08.2012 21:00 29,3 C 29,9 C 0,0 UV-I 0,0 C 56 % 64 % 0 % 1014,5 hPa 0,0 l/m 0,0 km/h (0 Bft) 0,00 h 0,00 h 0,0 km/h (0 Bft)
19.08.2012 22:00 29,0 C 27,9 C 0,0 UV-I 0,0 C 58 % 71 % 0 % 1014,7 hPa 0,0 l/m 0,0 km/h (0 Bft) 0,00 h 0,00 h 0,0 km/h (0 Bft)
19.08.2012 23:00 28,8 C 26,4 C 0,0 UV-I 0,0 C 61 % 76 % 0 % 1014,6 hPa 0,0 l/m 0,0 km/h (0 Bft) 0,00 h 0,00 h 0,0 km/h (0 Bft)
Min-Datum _ 13.08.12 13.08.12 13.08.12 13.08.12 16.08.12 19.08.12 13.08.12 15.08.12 - 13.08.12 - - 13.08.12
_ Min-Zeit 07:18 06:12 00:00 00:00 16:16 15:24 00:00 16:50 - 00:00 - - 00:00
Minimum _ 23,2 C 15,5 C 0,0 UV-I 0,0 C 41 % 35 % 0 % 1005,9 hPa - 0,0 km/h (0 Bft) - - 0,0 km/h (0 Bft)
Max-Datum _ 19.08.12 19.08.12 16.08.12 16.08.12 15.08.12 15.08.12 13.08.12 16.08.12 14.08.12 18.08.12 13.08.12 13.08.12 18.08.12
_ Max-Zeit 16:30 16:06 11:14 10:04 06:02 06:46 08:42 14:30 18:08 11:16 08:40 18:44 11:02
Maximum _ 31,9 C 38,6 C 5,6 UV-I 9,3 C 66 % 97 % 100 % 1020,1 hPa 3,7 l/m 12,8 km/h
SO (3 Bft)
0,03 h 0,03 h 32,1 km/h
SO (5 Bft)
Durchschnitt _ 26,3 C 23,7 C 1,2 UV-I 2,1 C 54 % 68 % 37 % 1014,6 hPa #5,4 l/m 2,9 km/h (1 Bft) #58:18 h #3:04 h 4,9 km/h (1 Bft)
© 2012 W. Hausmann